Wan Hai 267 — 9VDB6 — position and weather

sailwx.info

Track history (hours):
 
Tides and Currents Weather Stations Pressure Air Temp Water Temp Dewpoint Dewpoint Depression Visibility Wind Speed Wind Dir Waves Ship Positions

Wan Hai 267

Last reported at 2018-Jun-21 09:36 UTC. Time now 2018-Jun-21 14:14 UTC.
Position N 33°37' E 135°13'.

Length 198 m; draft 9.1 m.

Type: Cargo ship. MMSI: 564527118.

Date/timePositionNaut miles runAvg speedWind from/ knotsBaromVisibWave heightAir tempDewpointWater temp
2018-Jun-21 09:36N 33°37' E 135°13'218.2
2018-Jun-21 09:29N 33°39' E 135°11'817.9
2018-Jun-21 09:01N 33°46' E 135°04'917.7
2018-Jun-21 08:31N 33°53' E 134°60'816.2
2018-Jun-21 08:00N 34°02' E 134°58'4 7.8
2018-Jun-21 07:30N 34°05' E 134°58'3 6.7
2018-Jun-21 07:00N 34°09' E 134°58'3 6.8
2018-Jun-21 06:30N 34°12' E 134°57'4 7.6
2018-Jun-21 06:00N 34°16' E 134°58'612.4
2018-Jun-21 05:31N 34°22' E 135°00'917.7
2018-Jun-21 05:00N 34°29' E 135°07'918.0
2018-Jun-21 04:31N 34°35' E 135°15'510.8
2018-Jun-21 04:00N 34°40' E 135°15'0 0.7
2018-Jun-21 03:28N 34°41' E 135°15'0 0.0
2018-Jun-21 02:52N 34°41' E 135°15'0 0.0
2018-Jun-21 02:22N 34°41' E 135°15'0 0.0
2018-Jun-21 01:58N 34°41' E 135°15'0 0.0
2018-Jun-21 01:28N 34°41' E 135°15'0 0.0
2018-Jun-21 00:58N 34°41' E 135°15'0 0.0
2018-Jun-21 00:16N 34°41' E 135°15'0 0.0
2018-Jun-20 23:58N 34°41' E 135°15'0 0.0
2018-Jun-20 23:28N 34°41' E 135°15'0 0.0
2018-Jun-20 22:55N 34°41' E 135°15'0 1.0
2018-Jun-20 22:30N 34°40' E 135°15'4 7.4
2018-Jun-20 22:00N 34°38' E 135°18'510.2
2018-Jun-20 21:30N 34°39' E 135°24'1 1.8
2018-Jun-20 20:53N 34°39' E 135°26'0 0.0
2018-Jun-20 20:29N 34°39' E 135°26'0 0.0
2018-Jun-20 19:59N 34°39' E 135°26'0 0.0
2018-Jun-20 19:29N 34°39' E 135°26'0 0.0
2018-Jun-20 18:41N 34°39' E 135°26'0 0.0
2018-Jun-20 18:29N 34°39' E 135°26'0 0.0
2018-Jun-20 17:59N 34°39' E 135°26'0 0.0
2018-Jun-20 17:29N 34°39' E 135°26'0 0.0
2018-Jun-20 16:59N 34°39' E 135°26'0 0.0
2018-Jun-20 16:29N 34°39' E 135°26'0 0.0
2018-Jun-20 15:59N 34°39' E 135°26'0 0.0
2018-Jun-20 15:29N 34°39' E 135°26'0 0.0
2018-Jun-20 14:59N 34°39' E 135°26'0 0.0
2018-Jun-20 14:29N 34°39' E 135°26'0 0.0
2018-Jun-20 13:59N 34°39' E 135°26'0 0.0
2018-Jun-20 13:23N 34°39' E 135°26'0 0.0
2018-Jun-20 12:59N 34°39' E 135°26'0 0.0
2018-Jun-20 12:29N 34°39' E 135°26'0 0.0
2018-Jun-20 11:59N 34°39' E 135°26'0 0.0
2018-Jun-20 11:29N 34°39' E 135°26'0 0.0
2018-Jun-20 10:53N 34°39' E 135°26'0 0.0
2018-Jun-20 10:29N 34°39' E 135°26'0 0.0
2018-Jun-20 09:53N 34°39' E 135°26'0 0.0
2018-Jun-20 09:29N 34°39' E 135°26'0 0.0
2018-Jun-20 08:59N 34°39' E 135°26'0 0.0
2018-Jun-20 08:29N 34°39' E 135°26'0 0.0
2018-Jun-20 07:59N 34°39' E 135°26'0 0.0
2018-Jun-20 07:29N 34°39' E 135°26'0 0.0
2018-Jun-20 06:53N 34°39' E 135°26'0 0.0
2018-Jun-20 06:29N 34°39' E 135°26'0 0.0
2018-Jun-20 05:59N 34°39' E 135°26'0 0.6
2018-Jun-20 05:30N 34°39' E 135°25'3 6.6
2018-Jun-20 05:00N 34°37' E 135°22'4 8.5
2018-Jun-20 04:30N 34°34' E 135°18'815.5
2018-Jun-20 04:00N 34°29' E 135°11'918.0
2018-Jun-20 03:30N 34°22' E 135°04'816.7
2018-Jun-20 03:00N 34°15' E 134°59'612.0
2018-Jun-20 02:30N 34°09' E 134°59'4 7.3
2018-Jun-20 02:00N 34°05' E 134°59'4 7.6
2018-Jun-20 01:30N 34°01' E 134°59'5 9.7
2018-Jun-20 01:00N 33°57' E 134°58'5 9.5
2018-Jun-20 00:30N 33°52' E 134°55'4 7.4
2018-Jun-19 23:57N 33°49' E 134°53'4 7.6
2018-Jun-19 23:26N 33°45' E 134°51'  
2018-Jun-17 08:11N 24°20' E 118°22'416.4
2018-Jun-17 07:56N 24°20' E 118°18'715.7
2018-Jun-17 07:30N 24°20' E 118°10'612.6
2018-Jun-17 07:00N 24°25' E 118°05'5 9.6
2018-Jun-17 06:30N 24°29' E 118°04'2 0.2
2018-Jun-16 18:10N 24°31' E 118°05'1 3.8
2018-Jun-16 18:00N 24°31' E 118°04'5 9.6
2018-Jun-16 17:30N 24°26' E 118°03'612.7
2018-Jun-16 17:00N 24°22' E 118°08'4 8.9
2018-Jun-16 16:30N 24°20' E 118°12'2 3.1
2018-Jun-16 16:00N 24°18' E 118°13'2 3.2
2018-Jun-16 15:31N 24°17' E 118°14'20 3.4
2018-Jun-16 09:44N 23°58' E 118°11'3 8.7
2018-Jun-16 09:26N 23°57' E 118°08'  
2018-Jun-11 19:01N 20°12' E 110°20'313.3
2018-Jun-11 18:48N 20°13' E 110°23'  
Track history (hours):
 
Tides and Currents Weather Stations Pressure Air Temp Water Temp Dewpoint Dewpoint Depression Visibility Wind Speed Wind Dir Waves Ship Positions

Wan Hai 267

Last reported at 2018-Jun-21 09:36 UTC. Time now 2018-Jun-21 14:14 UTC.
Position N 33°37' E 135°13'.

Length 198 m; draft 9.1 m.

Type: Cargo ship. MMSI: 564527118.

Date/timePositionNaut miles runAvg speedWind from/ knotsBaromVisibWave heightAir tempDewpointWater temp
2018-Jun-21 09:36N 33°37' E 135°13'218.2
2018-Jun-21 09:29N 33°39' E 135°11'817.9
2018-Jun-21 09:01N 33°46' E 135°04'917.7
2018-Jun-21 08:31N 33°53' E 134°60'816.2
2018-Jun-21 08:00N 34°02' E 134°58'4 7.8
2018-Jun-21 07:30N 34°05' E 134°58'3 6.7
2018-Jun-21 07:00N 34°09' E 134°58'3 6.8
2018-Jun-21 06:30N 34°12' E 134°57'4 7.6
2018-Jun-21 06:00N 34°16' E 134°58'612.4
2018-Jun-21 05:31N 34°22' E 135°00'917.7
2018-Jun-21 05:00N 34°29' E 135°07'918.0
2018-Jun-21 04:31N 34°35' E 135°15'510.8
2018-Jun-21 04:00N 34°40' E 135°15'0 0.7
2018-Jun-21 03:28N 34°41' E 135°15'0 0.0
2018-Jun-21 02:52N 34°41' E 135°15'0 0.0
2018-Jun-21 02:22N 34°41' E 135°15'0 0.0
2018-Jun-21 01:58N 34°41' E 135°15'0 0.0
2018-Jun-21 01:28N 34°41' E 135°15'0 0.0
2018-Jun-21 00:58N 34°41' E 135°15'0 0.0
2018-Jun-21 00:16N 34°41' E 135°15'0 0.0
2018-Jun-20 23:58N 34°41' E 135°15'0 0.0
2018-Jun-20 23:28N 34°41' E 135°15'0 0.0
2018-Jun-20 22:55N 34°41' E 135°15'0 1.0
2018-Jun-20 22:30N 34°40' E 135°15'4 7.4
2018-Jun-20 22:00N 34°38' E 135°18'510.2
2018-Jun-20 21:30N 34°39' E 135°24'1 1.8
2018-Jun-20 20:53N 34°39' E 135°26'0 0.0
2018-Jun-20 20:29N 34°39' E 135°26'0 0.0
2018-Jun-20 19:59N 34°39' E 135°26'0 0.0
2018-Jun-20 19:29N 34°39' E 135°26'0 0.0
2018-Jun-20 18:41N 34°39' E 135°26'0 0.0
2018-Jun-20 18:29N 34°39' E 135°26'0 0.0
2018-Jun-20 17:59N 34°39' E 135°26'0 0.0
2018-Jun-20 17:29N 34°39' E 135°26'0 0.0
2018-Jun-20 16:59N 34°39' E 135°26'0 0.0
2018-Jun-20 16:29N 34°39' E 135°26'0 0.0
2018-Jun-20 15:59N 34°39' E 135°26'0 0.0
2018-Jun-20 15:29N 34°39' E 135°26'0 0.0
2018-Jun-20 14:59N 34°39' E 135°26'0 0.0
2018-Jun-20 14:29N 34°39' E 135°26'0 0.0
2018-Jun-20 13:59N 34°39' E 135°26'0 0.0
2018-Jun-20 13:23N 34°39' E 135°26'0 0.0
2018-Jun-20 12:59N 34°39' E 135°26'0 0.0
2018-Jun-20 12:29N 34°39' E 135°26'0 0.0
2018-Jun-20 11:59N 34°39' E 135°26'0 0.0
2018-Jun-20 11:29N 34°39' E 135°26'0 0.0
2018-Jun-20 10:53N 34°39' E 135°26'0 0.0
2018-Jun-20 10:29N 34°39' E 135°26'0 0.0
2018-Jun-20 09:53N 34°39' E 135°26'0 0.0
2018-Jun-20 09:29N 34°39' E 135°26'0 0.0
2018-Jun-20 08:59N 34°39' E 135°26'0 0.0
2018-Jun-20 08:29N 34°39' E 135°26'0 0.0
2018-Jun-20 07:59N 34°39' E 135°26'0 0.0
2018-Jun-20 07:29N 34°39' E 135°26'0 0.0
2018-Jun-20 06:53N 34°39' E 135°26'0 0.0
2018-Jun-20 06:29N 34°39' E 135°26'0 0.0
2018-Jun-20 05:59N 34°39' E 135°26'0 0.6
2018-Jun-20 05:30N 34°39' E 135°25'3 6.6
2018-Jun-20 05:00N 34°37' E 135°22'4 8.5
2018-Jun-20 04:30N 34°34' E 135°18'815.5
2018-Jun-20 04:00N 34°29' E 135°11'918.0
2018-Jun-20 03:30N 34°22' E 135°04'816.7
2018-Jun-20 03:00N 34°15' E 134°59'612.0
2018-Jun-20 02:30N 34°09' E 134°59'4 7.3
2018-Jun-20 02:00N 34°05' E 134°59'4 7.6
2018-Jun-20 01:30N 34°01' E 134°59'5 9.7
2018-Jun-20 01:00N 33°57' E 134°58'5 9.5
2018-Jun-20 00:30N 33°52' E 134°55'4 7.4
2018-Jun-19 23:57N 33°49' E 134°53'4 7.6
2018-Jun-19 23:26N 33°45' E 134°51'  
2018-Jun-17 08:11N 24°20' E 118°22'416.4
2018-Jun-17 07:56N 24°20' E 118°18'715.7
2018-Jun-17 07:30N 24°20' E 118°10'612.6
2018-Jun-17 07:00N 24°25' E 118°05'5 9.6
2018-Jun-17 06:30N 24°29' E 118°04'2 0.2
2018-Jun-16 18:10N 24°31' E 118°05'1 3.8
2018-Jun-16 18:00N 24°31' E 118°04'5 9.6
2018-Jun-16 17:30N 24°26' E 118°03'612.7
2018-Jun-16 17:00N 24°22' E 118°08'4 8.9
2018-Jun-16 16:30N 24°20' E 118°12'2 3.1
2018-Jun-16 16:00N 24°18' E 118°13'2 3.2
2018-Jun-16 15:31N 24°17' E 118°14'20 3.4
2018-Jun-16 09:44N 23°58' E 118°11'3 8.7
2018-Jun-16 09:26N 23°57' E 118°08'  
2018-Jun-11 19:01N 20°12' E 110°20'313.3
2018-Jun-11 18:48N 20°13' E 110°23'  

Dump ship's entire track history